createdAt,value
2023-01-28T00:01:59.246Z,3.60
2023-01-28T00:04:26.545Z,3.45
2023-01-28T00:06:53.779Z,3.47
2023-01-28T00:09:21.154Z,3.55
2023-01-28T00:11:48.389Z,3.65
2023-01-28T00:14:15.875Z,3.50
2023-01-28T00:16:43.420Z,3.47
2023-01-28T00:19:10.709Z,3.65
2023-01-28T00:21:37.970Z,3.17
2023-01-28T00:24:07.201Z,3.58
2023-01-28T00:26:34.470Z,3.60
2023-01-28T00:29:01.994Z,3.42
2023-01-28T00:31:29.400Z,3.90
2023-01-28T00:33:57.859Z,4.30
2023-01-28T00:36:27.340Z,4.00
2023-01-28T00:38:59.560Z,3.60
2023-01-28T00:41:29.111Z,3.85
2023-01-28T00:43:56.890Z,3.50
2023-01-28T00:46:26.549Z,3.60
2023-01-28T00:48:54.008Z,3.53
2023-01-28T00:51:21.778Z,4.22
2023-01-28T00:53:49.419Z,5.22
2023-01-28T00:56:18.312Z,3.75
2023-01-28T00:58:45.824Z,3.78
2023-01-28T01:01:24.260Z,3.70
2023-01-28T01:03:57.629Z,3.92
2023-01-28T01:06:26.040Z,4.30
2023-01-28T01:08:53.294Z,4.20
2023-01-28T01:11:20.581Z,4.30
2023-01-28T01:13:56.116Z,4.10
2023-01-28T01:16:26.462Z,3.83
2023-01-28T01:18:55.176Z,4.15
2023-01-28T01:21:25.868Z,4.75
2023-01-28T01:23:53.905Z,3.95
2023-01-28T01:26:21.829Z,4.03
2023-01-28T01:28:50.534Z,4.03
2023-01-28T01:31:20.397Z,4.47
2023-01-28T01:33:49.907Z,4.80
2023-01-28T01:36:19.616Z,4.32
2023-01-28T01:38:47.300Z,4.55
2023-01-28T01:41:24.522Z,4.45
2023-01-28T01:43:55.985Z,4.72
2023-01-28T01:46:50.100Z,4.68
2023-01-28T01:49:22.074Z,4.38
2023-01-28T01:51:58.756Z,4.68
2023-01-28T01:54:28.640Z,5.28
2023-01-28T01:56:56.184Z,4.70
2023-01-28T01:59:28.334Z,4.60
2023-01-28T02:01:56.466Z,5.22
2023-01-28T02:04:27.458Z,4.80
2023-01-28T02:06:55.269Z,5.20
2023-01-28T02:09:30.794Z,4.68
2023-01-28T02:12:08.527Z,4.30
2023-01-28T02:14:41.424Z,4.10
2023-01-28T02:17:08.927Z,4.10
2023-01-28T02:19:55.510Z,3.80
2023-01-28T02:23:06.700Z,3.55
2023-01-28T02:25:49.061Z,3.80
2023-01-28T02:28:32.258Z,3.70
2023-01-28T02:31:05.976Z,3.72
2023-01-28T02:34:00.007Z,3.67
2023-01-28T02:36:44.454Z,3.90
2023-01-28T02:39:23.311Z,3.75
2023-01-28T02:41:58.069Z,4.03
2023-01-28T02:47:12.122Z,3.35
2023-01-28T02:49:53.326Z,3.55
2023-01-28T02:52:58.338Z,3.55
2023-01-28T02:55:25.567Z,3.60
2023-01-28T02:58:14.359Z,3.70
2023-01-28T03:00:51.533Z,3.42
2023-01-28T03:03:45.169Z,3.70
2023-01-28T03:06:18.904Z,3.38
2023-01-28T03:09:11.790Z,3.37
2023-01-28T03:12:05.693Z,5.00
2023-01-28T03:14:55.002Z,3.58
2023-01-28T03:18:07.406Z,3.47
2023-01-28T03:21:00.657Z,3.15
2023-01-28T03:24:10.343Z,3.40
2023-01-28T03:27:01.738Z,3.60
2023-01-28T03:29:50.635Z,3.35
2023-01-28T03:32:37.418Z,3.63
2023-01-28T03:35:26.300Z,3.22
2023-01-28T03:37:53.752Z,3.10
2023-01-28T03:40:21.089Z,3.70
2023-01-28T03:42:48.429Z,3.30
2023-01-28T03:45:16.204Z,3.40
2023-01-28T03:47:44.620Z,3.63
2023-01-28T03:50:12.201Z,3.35
2023-01-28T03:52:39.602Z,3.08
2023-01-28T03:55:13.974Z,3.22
2023-01-28T04:00:10.948Z,3.92
2023-01-28T04:02:40.135Z,3.50
2023-01-28T04:05:12.970Z,3.53
2023-01-28T04:07:40.653Z,3.58
2023-01-28T04:10:08.880Z,3.20
2023-01-28T04:12:37.843Z,3.17
2023-01-28T04:15:15.675Z,3.30
2023-01-28T04:17:47.776Z,3.58
2023-01-28T04:20:15.699Z,3.60
2023-01-28T04:22:43.503Z,3.50
2023-01-28T04:25:10.987Z,3.50
2023-01-28T04:27:38.299Z,3.13
2023-01-28T04:30:06.025Z,3.65
2023-01-28T04:32:33.351Z,3.10
2023-01-28T04:35:00.669Z,3.63
2023-01-28T04:37:28.016Z,3.20
2023-01-28T04:39:55.251Z,3.10
2023-01-28T04:42:22.619Z,2.88
2023-01-28T04:44:49.855Z,3.03
2023-01-28T04:47:17.257Z,3.33
2023-01-28T04:49:44.540Z,3.00
2023-01-28T04:52:11.805Z,3.10
2023-01-28T04:54:39.075Z,2.85
2023-01-28T04:57:06.443Z,2.95
2023-01-28T04:59:33.842Z,2.83
2023-01-28T05:02:01.221Z,2.83
2023-01-28T05:04:28.493Z,2.47
2023-01-28T05:06:55.721Z,2.42
2023-01-28T05:09:22.936Z,2.65
2023-01-28T05:11:50.247Z,2.15
2023-01-28T05:14:17.460Z,2.58
2023-01-28T05:16:44.694Z,2.00
2023-01-28T05:19:11.966Z,2.15
2023-01-28T05:21:39.250Z,2.03
2023-01-28T05:24:06.842Z,2.10
2023-01-28T05:26:34.120Z,2.20
2023-01-28T05:29:01.472Z,2.40
2023-01-28T05:31:28.898Z,2.20
2023-01-28T05:33:56.180Z,2.00
2023-01-28T05:36:23.507Z,1.77
2023-01-28T05:38:50.835Z,2.05
2023-01-28T05:41:18.462Z,1.80
2023-01-28T05:43:45.777Z,2.00
2023-01-28T05:46:13.046Z,2.00
2023-01-28T05:48:40.333Z,1.90
2023-01-28T05:51:07.626Z,1.83
2023-01-28T05:53:34.862Z,1.92
2023-01-28T05:56:02.197Z,1.98
2023-01-28T05:58:32.046Z,2.00
2023-01-28T06:00:59.331Z,1.98
2023-01-28T06:03:26.678Z,2.33
2023-01-28T06:05:53.951Z,1.98
2023-01-28T06:08:21.234Z,1.85
2023-01-28T06:10:48.599Z,2.85
2023-01-28T06:13:15.921Z,2.30
2023-01-28T06:15:43.215Z,1.98
2023-01-28T06:18:10.567Z,2.20
2023-01-28T06:20:37.784Z,2.00
2023-01-28T06:23:05.039Z,2.38
2023-01-28T06:25:32.310Z,2.00
2023-01-28T06:27:59.601Z,2.25
2023-01-28T06:30:27.855Z,2.67
2023-01-28T06:32:58.253Z,1.98
2023-01-28T06:35:25.601Z,2.20
2023-01-28T06:37:53.615Z,2.35
2023-01-28T06:40:22.969Z,1.80
2023-01-28T06:42:50.353Z,2.00
2023-01-28T06:45:17.686Z,2.05
2023-01-28T06:47:44.985Z,2.00
2023-01-28T06:50:12.539Z,2.20
2023-01-28T06:52:41.835Z,2.08
2023-01-28T06:55:10.109Z,2.03
2023-01-28T06:57:41.742Z,2.13
2023-01-28T07:00:11.031Z,2.47
2023-01-28T07:02:38.873Z,2.00
2023-01-28T07:05:06.910Z,2.28
2023-01-28T07:07:34.415Z,2.45
2023-01-28T07:10:01.860Z,1.90
2023-01-28T07:12:29.136Z,2.60
2023-01-28T07:14:56.411Z,2.30
2023-01-28T07:17:23.775Z,2.15
2023-01-28T07:19:51.052Z,2.10
2023-01-28T07:22:18.290Z,2.60
2023-01-28T07:24:45.522Z,2.35
2023-01-28T07:27:12.776Z,2.50
2023-01-28T07:29:40.052Z,2.25
2023-01-28T07:32:07.418Z,2.30
2023-01-28T07:34:37.666Z,3.63
2023-01-28T07:37:04.964Z,2.17
2023-01-28T07:39:32.258Z,2.00
2023-01-28T07:41:59.504Z,2.10
2023-01-28T07:44:26.767Z,3.13
2023-01-28T07:46:54.536Z,1.75
2023-01-28T07:49:21.833Z,3.40
2023-01-28T07:51:52.091Z,1.38
2023-01-28T07:54:19.423Z,1.83
2023-01-28T07:56:46.762Z,1.50
2023-01-28T07:59:14.188Z,1.50
2023-01-28T08:01:41.546Z,1.50
2023-01-28T08:04:09.582Z,1.67
2023-01-28T08:06:37.929Z,1.60
2023-01-28T08:09:09.053Z,2.17
2023-01-28T08:11:39.025Z,1.67
2023-01-28T08:14:06.742Z,1.52
2023-01-28T08:16:33.992Z,1.40
2023-01-28T08:19:01.546Z,1.65
2023-01-28T08:21:28.876Z,1.70
2023-01-28T08:23:56.792Z,2.13
2023-01-28T08:26:24.269Z,1.92
2023-01-28T08:28:51.793Z,1.52
2023-01-28T08:31:19.130Z,1.65
2023-01-28T08:33:46.567Z,2.05
2023-01-28T08:36:13.860Z,1.98
2023-01-28T08:38:41.079Z,1.92
2023-01-28T08:41:08.378Z,1.63
2023-01-28T08:43:35.756Z,1.85
2023-01-28T08:46:05.146Z,2.83
2023-01-28T08:48:32.414Z,2.30
2023-01-28T08:51:00.208Z,2.28
2023-01-28T08:53:27.462Z,2.70
2023-01-28T08:55:55.475Z,2.50
2023-01-28T08:58:23.160Z,2.25
2023-01-28T09:00:51.051Z,3.20
2023-01-28T09:03:18.787Z,2.92
2023-01-28T09:05:46.176Z,3.08
2023-01-28T09:08:15.183Z,4.13
2023-01-28T09:10:42.940Z,3.05
2023-01-28T09:13:13.351Z,3.38
2023-01-28T09:15:41.248Z,5.32
2023-01-28T09:18:08.695Z,4.30
2023-01-28T09:20:36.813Z,3.85
2023-01-28T09:23:04.608Z,3.45
2023-01-28T09:25:32.052Z,3.85
2023-01-28T09:27:59.531Z,4.10
2023-01-28T09:30:27.498Z,4.45
2023-01-28T09:32:56.526Z,4.35
2023-01-28T09:35:24.107Z,4.90
2023-01-28T09:37:52.051Z,4.03
2023-01-28T09:40:37.583Z,4.55
2023-01-28T09:43:27.527Z,5.07
2023-01-28T09:45:58.949Z,5.57
2023-01-28T09:48:36.145Z,4.93
2023-01-28T09:51:08.034Z,5.72
2023-01-28T09:53:45.202Z,4.70
2023-01-28T09:56:37.673Z,6.75
2023-01-28T09:59:19.396Z,6.43
2023-01-28T10:01:49.769Z,7.68
2023-01-28T10:04:23.097Z,7.53
2023-01-28T10:07:21.458Z,7.38
2023-01-28T10:10:18.119Z,7.10
2023-01-28T10:12:56.985Z,7.70
2023-01-28T10:15:56.388Z,8.13
2023-01-28T10:18:36.260Z,9.48
2023-01-28T10:21:11.170Z,9.65
2023-01-28T10:23:55.668Z,7.90
2023-01-28T10:26:35.345Z,7.85
2023-01-28T10:29:39.906Z,8.95
2023-01-28T10:32:28.044Z,9.23
2023-01-28T10:34:56.350Z,11.63
2023-01-28T10:37:23.748Z,9.65
2023-01-28T10:39:54.166Z,11.65
2023-01-28T10:42:37.560Z,11.35
2023-01-28T10:45:32.518Z,11.60
2023-01-28T10:48:21.953Z,11.52
2023-01-28T10:50:57.069Z,8.98
2023-01-28T10:53:41.001Z,11.80
2023-01-28T10:56:11.754Z,10.05
2023-01-28T10:59:01.097Z,9.88
2023-01-28T11:01:45.066Z,9.13
2023-01-28T11:04:19.867Z,8.10
2023-01-28T11:06:59.034Z,7.57
2023-01-28T11:09:29.619Z,8.70
2023-01-28T11:11:57.698Z,7.28
2023-01-28T11:14:27.418Z,7.30
2023-01-28T11:16:58.197Z,7.57
2023-01-28T11:19:34.041Z,6.30
2023-01-28T11:22:02.091Z,8.07
2023-01-28T11:24:33.199Z,8.25
2023-01-28T11:27:17.032Z,6.45
2023-01-28T11:29:44.709Z,6.63
2023-01-28T11:32:21.199Z,6.65
2023-01-28T11:34:57.443Z,6.40
2023-01-28T11:37:27.309Z,5.80
2023-01-28T11:40:21.522Z,5.13
2023-01-28T11:42:51.374Z,5.40
2023-01-28T11:45:24.516Z,4.30
2023-01-28T11:48:18.828Z,4.78
2023-01-28T11:51:01.964Z,4.63
2023-01-28T11:53:57.063Z,4.88
2023-01-28T11:56:55.046Z,4.85
2023-01-28T11:59:47.000Z,4.15
2023-01-28T12:02:26.307Z,4.63
2023-01-28T12:05:19.463Z,4.20
2023-01-28T12:08:25.214Z,4.28
2023-01-28T12:13:38.268Z,4.95
2023-01-28T12:16:30.326Z,4.65
2023-01-28T12:19:16.287Z,4.68
2023-01-28T12:21:43.503Z,4.32
2023-01-28T12:24:21.799Z,4.38
2023-01-28T12:27:26.316Z,4.10
2023-01-28T12:30:16.883Z,3.78
2023-01-28T12:32:54.587Z,3.47
2023-01-28T12:35:32.540Z,3.83
2023-01-28T12:38:07.397Z,4.55
2023-01-28T12:40:59.560Z,4.38
2023-01-28T12:43:48.433Z,5.00
2023-01-28T12:46:36.913Z,3.58
2023-01-28T12:49:09.910Z,3.58
2023-01-28T12:51:54.907Z,3.47
2023-01-28T12:56:56.462Z,3.58
2023-01-28T12:59:45.934Z,4.25
2023-01-28T13:02:13.293Z,4.20
2023-01-28T13:04:46.380Z,3.50
2023-01-28T13:07:20.094Z,3.83
2023-01-28T13:10:04.683Z,3.67
2023-01-28T13:12:33.846Z,3.33
2023-01-28T13:15:01.862Z,3.78
2023-01-28T13:17:31.929Z,3.83
2023-01-28T13:20:00.012Z,4.10
2023-01-28T13:22:36.042Z,3.50
2023-01-28T13:25:27.973Z,4.38
2023-01-28T13:28:04.659Z,4.70
2023-01-28T13:30:47.714Z,4.03
2023-01-28T13:33:36.161Z,4.25
2023-01-28T13:36:29.106Z,6.15
2023-01-28T13:39:21.343Z,4.00
2023-01-28T13:41:49.816Z,3.38
2023-01-28T13:44:25.984Z,3.65
2023-01-28T13:47:13.292Z,3.83
2023-01-28T13:49:43.729Z,3.60
2023-01-28T13:52:10.937Z,3.55
2023-01-28T13:54:51.723Z,4.10
2023-01-28T13:57:33.045Z,3.78
2023-01-28T14:00:09.447Z,4.47
2023-01-28T14:02:51.525Z,4.07
2023-01-28T14:05:27.971Z,3.47
2023-01-28T14:08:15.235Z,3.88
2023-01-28T14:11:01.429Z,3.30
2023-01-28T14:13:34.423Z,4.05
2023-01-28T14:16:29.796Z,3.45
2023-01-28T14:21:28.869Z,2.92
2023-01-28T14:23:57.983Z,3.03
2023-01-28T14:26:57.184Z,2.75
2023-01-28T14:29:44.138Z,3.95
2023-01-28T14:32:19.169Z,3.03
2023-01-28T14:34:48.152Z,3.22
2023-01-28T14:37:22.866Z,2.95
2023-01-28T14:42:30.980Z,3.22
2023-01-28T14:45:03.981Z,3.33
2023-01-28T14:47:40.376Z,2.70
2023-01-28T14:50:16.852Z,2.83
2023-01-28T14:52:56.569Z,2.50
2023-01-28T14:55:53.627Z,3.13
2023-01-28T14:58:46.335Z,2.88
2023-01-28T15:01:28.573Z,3.45
2023-01-28T15:03:56.126Z,2.60
2023-01-28T15:06:25.814Z,3.13
2023-01-28T15:08:53.877Z,2.85
2023-01-28T15:11:25.782Z,4.22
2023-01-28T15:13:57.795Z,3.78
2023-01-28T15:16:30.314Z,2.50
2023-01-28T15:19:00.460Z,4.10
2023-01-28T15:21:29.342Z,3.40
2023-01-28T15:23:59.990Z,3.88
2023-01-28T15:26:30.955Z,2.90
2023-01-28T15:28:59.193Z,2.42
2023-01-28T15:31:32.769Z,3.25
2023-01-28T15:34:04.933Z,2.60
2023-01-28T15:36:32.537Z,3.33
2023-01-28T15:38:59.791Z,2.28
2023-01-28T15:41:58.008Z,3.28
2023-01-28T15:44:37.281Z,3.13
2023-01-28T15:47:16.943Z,2.55
2023-01-28T15:49:48.012Z,2.55
2023-01-28T15:52:15.780Z,2.33
2023-01-28T15:54:48.224Z,2.80
2023-01-28T15:57:27.397Z,2.38
2023-01-28T16:00:06.771Z,2.85
2023-01-28T16:02:41.875Z,3.00
2023-01-28T16:05:34.686Z,2.42
2023-01-28T16:08:10.614Z,2.83
2023-01-28T16:10:38.402Z,2.45
2023-01-28T16:13:28.433Z,2.40
2023-01-28T16:15:57.689Z,2.20
2023-01-28T16:18:47.461Z,2.00
2023-01-28T16:21:23.906Z,2.63
2023-01-28T16:23:53.507Z,2.95
2023-01-28T16:26:26.037Z,2.00
2023-01-28T16:28:53.380Z,1.85
2023-01-28T16:31:21.316Z,2.20
2023-01-28T16:33:48.697Z,2.75
2023-01-28T16:36:19.439Z,2.20
2023-01-28T16:38:46.930Z,2.15
2023-01-28T16:41:28.203Z,2.22
2023-01-28T16:43:55.534Z,2.75
2023-01-28T16:46:26.359Z,2.95
2023-01-28T16:48:53.678Z,2.17
2023-01-28T16:51:21.061Z,2.58
2023-01-28T16:53:49.789Z,2.38
2023-01-28T16:56:46.827Z,2.25
2023-01-28T16:59:11.985Z,3.15
2023-01-28T17:01:39.899Z,3.45
2023-01-28T17:04:12.225Z,3.67
2023-01-28T17:06:44.579Z,2.67
2023-01-28T17:09:13.850Z,2.78
2023-01-28T17:11:41.595Z,2.78
2023-01-28T17:14:10.179Z,2.60
2023-01-28T17:16:37.958Z,4.95
2023-01-28T17:19:05.835Z,2.47
2023-01-28T17:21:33.174Z,2.55
2023-01-28T17:24:01.972Z,2.60
2023-01-28T17:26:29.467Z,3.30
2023-01-28T17:28:56.944Z,3.80
2023-01-28T17:31:26.303Z,3.13
2023-01-28T17:33:58.561Z,3.30
2023-01-28T17:36:27.449Z,3.30
2023-01-28T17:38:55.295Z,3.20
2023-01-28T17:41:22.818Z,3.55
2023-01-28T17:43:55.313Z,3.17
2023-01-28T17:46:24.741Z,3.25
2023-01-28T17:48:52.716Z,3.28
2023-01-28T17:51:20.480Z,3.70
2023-01-28T17:53:49.613Z,3.00
2023-01-28T17:56:22.608Z,4.50
2023-01-28T17:58:54.937Z,2.55
2023-01-28T18:01:23.768Z,3.22
2023-01-28T18:03:51.317Z,3.40
2023-01-28T18:06:18.980Z,2.85
2023-01-28T18:08:46.494Z,2.78
2023-01-28T18:11:16.332Z,2.80
2023-01-28T18:13:44.567Z,2.97
2023-01-28T18:16:15.624Z,3.17
2023-01-28T18:18:44.409Z,2.53
2023-01-28T18:21:23.272Z,2.63
2023-01-28T18:23:52.846Z,2.58
2023-01-28T18:26:20.262Z,3.30
2023-01-28T18:28:48.442Z,2.92
2023-01-28T18:31:16.094Z,2.50
2023-01-28T18:33:43.584Z,3.20
2023-01-28T18:36:11.143Z,3.22
2023-01-28T18:38:38.551Z,3.60
2023-01-28T18:41:05.875Z,2.75
2023-01-28T18:43:35.438Z,2.75
2023-01-28T18:46:11.891Z,2.40
2023-01-28T18:48:39.677Z,2.50
2023-01-28T18:51:12.317Z,2.60
2023-01-28T18:53:45.029Z,3.00
2023-01-28T18:56:12.896Z,3.22
2023-01-28T18:58:40.201Z,2.53
2023-01-28T19:01:09.485Z,2.60
2023-01-28T19:03:37.810Z,2.63
2023-01-28T19:06:10.196Z,2.65
2023-01-28T19:08:37.671Z,2.60
2023-01-28T19:11:05.208Z,9.10
2023-01-28T19:13:32.669Z,15.27
2023-01-28T19:16:04.413Z,9.63
2023-01-28T19:18:32.369Z,14.45
2023-01-28T19:21:07.074Z,13.75
2023-01-28T19:26:21.302Z,15.95
2023-01-28T19:28:49.911Z,22.10
2023-01-28T19:31:19.324Z,15.60
2023-01-28T19:33:47.598Z,18.85
2023-01-28T19:36:15.641Z,13.70
2023-01-28T19:38:43.260Z,16.67
2023-01-28T19:41:13.669Z,15.80
2023-01-28T19:43:41.108Z,16.10
2023-01-28T19:46:09.303Z,18.15
2023-01-28T19:48:36.685Z,15.93
2023-01-28T19:51:08.887Z,11.35
2023-01-28T19:53:37.644Z,19.02
2023-01-28T19:56:08.588Z,14.75
2023-01-28T19:58:38.719Z,13.88
2023-01-28T20:01:13.828Z,11.80
2023-01-28T20:03:41.449Z,14.68
2023-01-28T20:06:14.518Z,14.90
2023-01-28T20:08:43.140Z,12.93
2023-01-28T20:11:13.867Z,13.27
2023-01-28T20:13:43.293Z,11.57
2023-01-28T20:16:19.185Z,14.98
2023-01-28T20:18:51.995Z,12.23
2023-01-28T20:21:20.215Z,13.32
2023-01-28T20:23:49.135Z,17.50
2023-01-28T20:26:16.990Z,15.18
2023-01-28T20:28:44.533Z,15.57
2023-01-28T20:31:12.786Z,16.55
2023-01-28T20:33:40.379Z,18.90
2023-01-28T20:36:13.058Z,12.52
2023-01-28T20:38:45.983Z,13.05
2023-01-28T20:41:16.843Z,14.52
2023-01-28T20:43:45.483Z,14.27
2023-01-28T20:46:19.300Z,11.75
2023-01-28T20:48:48.031Z,15.80
2023-01-28T20:51:17.690Z,12.85
2023-01-28T20:53:45.315Z,11.63
2023-01-28T20:56:14.460Z,12.50
2023-01-28T20:58:42.845Z,12.75
2023-01-28T21:01:18.301Z,13.63
2023-01-28T21:03:45.779Z,9.32
2023-01-28T21:06:13.178Z,12.10
2023-01-28T21:08:40.568Z,11.20
2023-01-28T21:11:08.744Z,11.23
2023-01-28T21:13:36.125Z,15.27
2023-01-28T21:16:03.992Z,20.67
2023-01-28T21:18:31.460Z,18.17
2023-01-28T21:21:05.034Z,22.92
2023-01-28T21:23:32.360Z,19.65
2023-01-28T21:26:04.530Z,15.48
2023-01-28T21:28:32.298Z,23.20
2023-01-28T21:31:11.720Z,25.23
2023-01-28T21:33:39.212Z,18.50
2023-01-28T21:36:14.734Z,13.73
2023-01-28T21:38:42.549Z,19.52
2023-01-28T21:41:10.562Z,13.85
2023-01-28T21:43:37.927Z,12.43
2023-01-28T21:46:05.712Z,12.10
2023-01-28T21:48:33.085Z,11.10
2023-01-28T21:51:26.364Z,11.48
2023-01-28T21:53:54.122Z,10.00
2023-01-28T21:56:21.560Z,11.48
2023-01-28T21:59:07.266Z,10.43
2023-01-28T22:01:34.677Z,11.55
2023-01-28T22:04:01.992Z,9.55
2023-01-28T22:06:29.356Z,9.82
2023-01-28T22:08:56.696Z,13.95
2023-01-28T22:11:23.989Z,10.27
2023-01-28T22:13:51.276Z,10.57
2023-01-28T22:16:19.024Z,9.40
2023-01-28T22:18:47.602Z,11.30
2023-01-28T22:21:14.975Z,9.57
2023-01-28T22:23:42.281Z,13.48
2023-01-28T22:26:09.729Z,9.57
2023-01-28T22:28:37.989Z,11.05
2023-01-28T22:31:10.794Z,8.32
2023-01-28T22:33:38.824Z,9.43
2023-01-28T22:36:08.101Z,9.20
2023-01-28T22:38:41.986Z,9.70
2023-01-28T22:41:14.841Z,8.60
2023-01-28T22:43:42.671Z,9.40
2023-01-28T22:46:10.555Z,8.93
2023-01-28T22:48:39.158Z,8.88
2023-01-28T22:51:15.148Z,9.32
2023-01-28T22:53:42.519Z,7.85
2023-01-28T22:56:09.883Z,7.70
2023-01-28T22:58:37.300Z,9.20
2023-01-28T23:01:05.239Z,9.05
2023-01-28T23:03:32.963Z,9.07
2023-01-28T23:06:01.712Z,9.07
2023-01-28T23:08:29.466Z,7.57
2023-01-28T23:11:00.128Z,9.48
2023-01-28T23:13:48.454Z,8.73
2023-01-28T23:16:34.304Z,8.35
2023-01-28T23:19:19.998Z,8.13
2023-01-28T23:22:05.886Z,10.07
2023-01-28T23:24:33.959Z,9.25
2023-01-28T23:27:05.412Z,9.75
2023-01-28T23:29:33.021Z,8.18
2023-01-28T23:32:10.846Z,9.45
2023-01-28T23:34:40.976Z,9.23
2023-01-28T23:37:10.476Z,8.85
2023-01-28T23:39:37.731Z,8.70
2023-01-28T23:42:17.344Z,8.90
2023-01-28T23:44:44.817Z,8.68
2023-01-28T23:47:12.370Z,8.55
2023-01-28T23:49:39.841Z,9.02
2023-01-28T23:52:08.563Z,10.20
2023-01-28T23:54:36.135Z,10.77
2023-01-28T23:57:04.553Z,9.45
2023-01-28T23:59:31.901Z,9.60
